Time;durP1;ratioP1;P1;durP2;ratioP2;P2;SDS_P1;SDS_P2;PMS_P1;PMS_P2;Temp;Humidity;BMP_temperature;BMP_pressure;BME280_temperature;BME280_humidity;BME280_pressure;Samples;Min_cycle;Max_cycle;Signal;HPM_P1;HPM_P2
2022/11/12 00:00:59;;;;;;;54.77;50.07;;;;;;;11.32;100.00;102943.47;5051111;28;20461;-49
2022/11/12 00:03:26;;;;;;;54.67;49.67;;;;;;;11.34;100.00;102944.19;5051266;28;20925;-50
2022/11/12 00:05:55;;;;;;;56.17;51.10;;;;;;;11.34;100.00;102952.19;5050845;28;20467;-50
2022/11/12 00:08:23;;;;;;;56.37;51.20;;;;;;;11.31;100.00;102949.81;5051305;28;20463;-51
2022/11/12 00:10:51;;;;;;;55.67;50.70;;;;;;;11.31;100.00;102949.81;5051015;28;20976;-46
2022/11/12 00:13:19;;;;;;;53.80;48.70;;;;;;;11.30;100.00;102949.94;5051434;28;20435;-50
2022/11/12 00:15:47;;;;;;;54.83;49.77;;;;;;;11.28;100.00;102950.09;5050769;28;20467;-49
2022/11/12 00:18:14;;;;;;;55.10;50.40;;;;;;;11.30;100.00;102939.25;5051184;28;20457;-52
2022/11/12 00:20:42;;;;;;;54.90;50.17;;;;;;;11.30;100.00;102941.94;5045718;28;20427;-50
2022/11/12 00:23:11;;;;;;;53.40;48.67;;;;;;;11.28;100.00;102954.59;5043018;28;20840;-48
2022/11/12 00:25:38;;;;;;;56.47;50.87;;;;;;;11.29;100.00;102954.44;5050835;28;20470;-48
2022/11/12 00:28:07;;;;;;;54.40;49.60;;;;;;;11.29;100.00;102954.44;5051037;28;20451;-52
2022/11/12 00:30:38;;;;;;;56.00;50.60;;;;;;;11.33;100.00;102955.84;5051050;28;20493;-51
2022/11/12 00:33:06;;;;;;;57.10;51.43;;;;;;;11.35;100.00;102953.84;5050802;28;20480;-46
2022/11/12 00:35:34;;;;;;;55.30;50.27;;;;;;;11.33;100.00;102942.47;5050695;28;20459;-46
2022/11/12 00:38:01;;;;;;;57.57;52.40;;;;;;;11.34;100.00;102944.19;5051105;28;20505;-51
2022/11/12 00:40:30;;;;;;;54.90;50.20;;;;;;;11.34;100.00;102944.19;5051172;28;20494;-48
2022/11/12 00:42:58;;;;;;;56.67;51.67;;;;;;;11.34;100.00;102944.19;5054142;28;20437;-45
2022/11/12 00:45:26;;;;;;;56.80;51.67;;;;;;;11.35;100.00;102956.53;5054264;28;20451;-48
2022/11/12 00:47:55;;;;;;;55.43;50.33;;;;;;;11.33;100.00;102952.31;5054422;28;20790;-47
2022/11/12 00:50:23;;;;;;;55.03;50.23;;;;;;;11.35;100.00;102953.03;5054842;28;20427;-49
2022/11/12 00:52:51;;;;;;;56.30;51.20;;;;;;;11.37;100.00;102957.25;5054247;28;20501;-49
2022/11/12 00:55:19;;;;;;;58.47;51.13;;;;;;;11.36;100.00;102944.84;5054083;28;20991;-50
2022/11/12 00:57:48;;;;;;;55.50;50.20;;;;;;;11.38;100.00;102955.41;5054422;28;20883;-51
2022/11/12 01:00:18;;;;;;;55.80;50.80;;;;;;;11.41;100.00;102955.13;5054302;28;20509;-48
2022/11/12 01:02:46;;;;;;;55.97;50.77;;;;;;;11.41;100.00;102955.94;5054360;28;20843;-48
2022/11/12 01:05:18;;;;;;;53.60;49.20;;;;;;;11.42;100.00;102962.97;5054022;28;20490;-49
2022/11/12 01:07:47;;;;;;;55.37;50.17;;;;;;;11.43;100.00;102963.81;5054233;28;20450;-50
2022/11/12 01:10:22;;;;;;;57.00;50.73;;;;;;;11.42;100.00;102944.25;5054320;28;20441;-46
2022/11/12 01:12:51;;;;;;;58.03;52.63;;;;;;;11.44;100.00;102955.63;5053965;28;20474;-49
2022/11/12 01:15:18;;;;;;;56.93;51.80;;;;;;;11.45;100.00;102962.66;5053832;28;20512;-51
2022/11/12 01:17:46;;;;;;;56.40;51.50;;;;;;;11.47;100.00;102962.50;5054072;28;20455;-48
2022/11/12 01:20:13;;;;;;;56.50;51.50;;;;;;;11.46;100.00;102944.81;5049623;28;20435;-47
2022/11/12 01:22:41;;;;;;;58.83;53.23;;;;;;;11.44;100.00;102958.31;5045018;28;20423;-49
2022/11/12 01:25:09;;;;;;;57.43;52.17;;;;;;;11.44;100.00;102952.97;5053388;28;20806;-50
2022/11/12 01:27:36;;;;;;;59.13;52.77;;;;;;;11.45;100.00;102946.63;5053965;28;20513;-50
2022/11/12 01:30:06;;;;;;;58.47;53.23;;;;;;;11.42;100.00;102946.94;5054005;28;20493;-46
2022/11/12 01:32:35;;;;;;;57.63;52.13;;;;;;;11.42;100.00;102957.63;5053715;28;20478;-50
2022/11/12 01:35:03;;;;;;;57.33;52.20;;;;;;;11.45;100.00;102957.31;5053387;28;20463;-47
2022/11/12 01:37:31;;;;;;;55.00;50.10;;;;;;;11.45;100.00;102954.66;5053564;28;21014;-47
2022/11/12 01:39:59;;;;;;;55.83;50.50;;;;;;;11.46;100.00;102958.19;5053638;28;20457;-47
2022/11/12 01:42:29;;;;;;;56.63;51.13;;;;;;;11.47;100.00;102958.00;5053599;28;20432;-49
2022/11/12 01:44:57;;;;;;;59.27;53.57;;;;;;;11.48;100.00;102951.69;5053278;28;20463;-46
2022/11/12 01:47:29;;;;;;;56.37;50.90;;;;;;;11.50;100.00;102954.19;5053405;28;20463;-48
2022/11/12 01:50:00;;;;;;;56.00;50.90;;;;;;;11.49;100.00;102947.19;5053576;28;20435;-51
2022/11/12 01:52:33;;;;;;;59.60;53.67;;;;;;;11.47;100.00;102941.97;5052962;28;20467;-49
2022/11/12 01:55:04;;;;;;;60.93;54.87;;;;;;;11.47;100.00;102943.81;5052891;28;20472;-50
2022/11/12 01:57:37;;;;;;;59.50;53.30;;;;;;;11.45;100.00;102957.31;5053453;28;20496;-46
2022/11/12 02:00:12;;;;;;;58.03;52.20;;;;;;;11.46;100.00;102945.66;5053226;28;21125;-47
2022/11/12 02:02:46;;;;;;;59.17;53.30;;;;;;;11.45;100.00;102954.66;5052839;28;20508;-47
2022/11/12 02:05:15;;;;;;;59.00;53.33;;;;;;;11.48;100.00;102961.53;5052872;28;20463;-50
2022/11/12 02:07:45;;;;;;;59.53;53.83;;;;;;;11.46;100.00;102950.16;5053238;28;20493;-48
2022/11/12 02:10:14;;;;;;;59.30;53.20;;;;;;;11.46;100.00;102953.69;5053466;28;20493;-46
2022/11/12 02:15:28;;;;;;;59.23;53.87;;;;;;;11.46;100.00;102961.69;5052660;28;20467;-48
2022/11/12 02:17:57;;;;;;;58.13;52.63;;;;;;;11.47;100.00;102950.00;5053044;28;20457;-50
2022/11/12 02:20:25;;;;;;;59.73;53.43;;;;;;;11.47;100.00;102954.50;5047618;28;20440;-47
2022/11/12 02:22:54;;;;;;;56.57;50.63;;;;;;;11.46;100.00;102952.84;5044481;28;20415;-46
2022/11/12 02:25:24;;;;;;;60.87;54.50;;;;;;;11.46;100.00;102960.84;5052451;28;20541;-48
2022/11/12 02:27:54;;;;;;;61.37;54.13;;;;;;;11.44;100.00;102950.28;5052648;28;20490;-46
2022/11/12 02:30:32;;;;;;;56.93;50.77;;;;;;;11.46;100.00;102956.34;5052910;28;20496;-49
2022/11/12 02:32:59;;;;;;;59.33;53.30;;;;;;;11.45;100.00;102957.31;5052684;28;20475;-48
2022/11/12 02:35:27;;;;;;;59.13;53.23;;;;;;;11.48;100.00;102958.84;5052242;28;20467;-46
2022/11/12 02:37:56;;;;;;;61.73;55.10;;;;;;;11.48;100.00;102956.19;5052430;28;20447;-47
2022/11/12 02:40:24;;;;;;;58.10;52.33;;;;;;;11.48;100.00;102962.38;5052460;28;20439;-45
2022/11/12 02:42:51;;;;;;;61.13;54.67;;;;;;;11.50;100.00;102971.06;5052560;28;20458;-45
2022/11/12 02:45:19;;;;;;;62.37;55.40;;;;;;;11.50;100.00;102971.06;5052038;28;20875;-52
2022/11/12 02:47:47;;;;;;;60.57;54.10;;;;;;;11.50;100.00;102970.22;5052285;28;20463;-51
2022/11/12 02:50:15;;;;;;;63.57;57.53;;;;;;;11.49;100.00;102963.22;5052388;28;20439;-46
2022/11/12 02:52:43;;;;;;;61.33;54.67;;;;;;;11.49;100.00;102971.25;5051962;28;20497;-48
2022/11/12 02:55:13;;;;;;;63.13;54.87;;;;;;;11.47;100.00;102971.38;5051788;28;20462;-48
2022/11/12 02:57:40;;;;;;;59.80;53.37;;;;;;;11.48;100.00;102964.19;5052135;28;20478;-47
2022/11/12 03:00:10;;;;;;;60.70;54.50;;;;;;;11.47;100.00;102978.53;5052172;28;20493;-50
2022/11/12 03:02:41;;;;;;;63.63;56.10;;;;;;;11.49;100.00;102976.59;5052454;28;20876;-46
2022/11/12 03:05:10;;;;;;;63.10;55.87;;;;;;;11.49;100.00;102982.78;5050790;28;20467;-46
2022/11/12 03:07:37;;;;;;;66.00;57.10;;;;;;;11.48;100.00;102994.44;5052180;28;20904;-46
2022/11/12 03:10:06;;;;;;;64.53;57.50;;;;;;;11.47;100.00;102983.88;5052432;28;20435;-48
2022/11/12 03:12:35;;;;;;;65.83;58.70;;;;;;;11.47;100.00;102990.06;5051749;28;21053;-47
2022/11/12 03:15:03;;;;;;;66.87;58.23;;;;;;;11.49;100.00;102992.63;5051497;28;20470;-46
2022/11/12 03:17:31;;;;;;;66.03;59.23;;;;;;;11.48;100.00;102997.09;5052148;28;20529;-48
2022/11/12 03:19:58;;;;;;;67.27;60.37;;;;;;;11.48;100.00;102989.09;5049350;28;20496;-48
2022/11/12 03:22:26;;;;;;;64.73;57.73;;;;;;;11.45;100.00;102993.88;5040725;28;20938;-45
2022/11/12 03:24:53;;;;;;;67.03;59.80;;;;;;;11.46;100.00;102999.09;5051430;28;20462;-48
2022/11/12 03:27:21;;;;;;;64.93;58.03;;;;;;;11.46;100.00;103009.78;5051828;28;20451;-47
2022/11/12 03:29:50;;;;;;;64.37;57.50;;;;;;;11.46;100.00;103001.78;5051704;28;20486;-47
2022/11/12 03:32:17;;;;;;;65.83;59.10;;;;;;;11.48;100.00;103005.13;5051450;28;20552;-47
2022/11/12 03:34:45;;;;;;;66.80;59.00;;;;;;;11.49;100.00;103008.66;5051337;28;20463;-48
2022/11/12 03:37:12;;;;;;;71.17;58.90;;;;;;;11.50;100.00;103013.81;5051633;28;20450;-46
2022/11/12 03:39:40;;;;;;;68.23;59.83;;;;;;;11.49;100.00;103012.16;5051803;28;20778;-48
2022/11/12 03:42:08;;;;;;;67.33;59.70;;;;;;;11.50;100.00;102997.78;5051578;28;20501;-47
2022/11/12 03:44:36;;;;;;;67.27;57.97;;;;;;;11.51;100.00;103003.97;5051129;28;20885;-47
2022/11/12 03:47:05;;;;;;;67.43;59.57;;;;;;;11.51;100.00;103003.97;5051344;28;20944;-52
2022/11/12 03:49:32;;;;;;;69.87;62.30;;;;;;;11.52;100.00;103013.69;5051556;28;20974;-45
2022/11/12 03:52:00;;;;;;;78.03;60.43;;;;;;;11.50;100.00;103013.81;5051500;28;20442;-47
2022/11/12 03:54:27;;;;;;;67.73;60.73;;;;;;;11.51;100.00;103006.66;5050810;28;20471;-45
2022/11/12 03:56:55;;;;;;;70.23;60.93;;;;;;;11.51;100.00;103003.97;5051270;28;20459;-50
2022/11/12 03:59:22;;;;;;;70.50;61.10;;;;;;;11.50;100.00;102999.63;5051391;28;20493;-45
2022/11/12 04:01:50;;;;;;;69.33;61.27;;;;;;;11.50;100.00;103002.28;5051277;28;20934;-45
2022/11/12 04:04:19;;;;;;;69.93;58.70;;;;;;;11.46;100.00;103007.13;5050904;28;20528;-48
2022/11/12 04:09:31;;;;;;;70.83;61.10;;;;;;;11.46;100.00;103001.78;5051398;28;20438;-46
2022/11/12 04:13:26;;;;;;;65.67;58.73;;;;;;;11.47;100.00;102992.75;5051449;28;20493;-46
2022/11/12 04:14:46;;;;;;;71.23;63.30;;;;;;;11.45;100.00;102997.41;5050623;28;20462;-49
2022/11/12 04:22:45;;;;;;;68.47;61.73;;;;;;;11.47;100.00;103014.13;5035284;28;20420;-48
2022/11/12 04:27:57;;;;;;;68.50;61.57;;;;;;;11.48;100.00;103014.97;5035135;28;20806;-49
2022/11/12 04:30:24;;;;;;;66.27;59.47;;;;;;;11.49;100.00;103012.16;5034983;28;20482;-46
2022/11/12 04:32:54;;;;;;;67.70;60.67;;;;;;;11.47;100.00;102998.09;5034790;28;20522;-50
2022/11/12 04:35:25;;;;;;;75.20;64.77;;;;;;;11.48;100.00;102993.59;5034577;28;21064;-48
2022/11/12 04:37:53;;;;;;;68.13;61.10;;;;;;;11.48;100.00;103006.94;5035071;28;20443;-46
2022/11/12 04:45:56;;;;;;;68.53;61.27;;;;;;;11.47;100.00;103013.28;5034287;28;20518;-48
2022/11/12 04:48:25;;;;;;;71.10;61.47;;;;;;;11.46;100.00;102999.09;5034659;28;20464;-49
2022/11/12 04:50:58;;;;;;;75.23;61.00;;;;;;;11.45;100.00;102994.72;5034608;28;20436;-51
2022/11/12 04:53:26;;;;;;;67.37;59.80;;;;;;;11.46;100.00;103003.59;5034693;28;20872;-45
2022/11/12 04:55:56;;;;;;;70.10;60.57;;;;;;;11.43;100.00;103015.44;5034255;28;20988;-48
2022/11/12 04:58:24;;;;;;;71.93;60.30;;;;;;;11.45;100.00;103017.94;5034693;28;20447;-46
2022/11/12 05:00:53;;;;;;;66.00;58.00;;;;;;;11.44;100.00;103010.94;5034465;28;20660;-48
2022/11/12 05:03:20;;;;;;;69.47;60.70;;;;;;;11.43;100.00;103017.25;5034637;28;20436;-48
2022/11/12 05:05:48;;;;;;;66.90;59.40;;;;;;;11.42;100.00;103015.56;5034068;28;20877;-48
2022/11/12 05:08:17;;;;;;;78.27;60.40;;;;;;;11.42;100.00;103011.06;5033123;28;20460;-46
2022/11/12 05:10:44;;;;;;;65.50;58.80;;;;;;;11.41;100.00;102996.00;5034160;28;20436;-45
2022/11/12 05:13:12;;;;;;;66.77;59.50;;;;;;;11.42;100.00;103002.19;5034196;28;21047;-45
2022/11/12 05:15:39;;;;;;;74.50;61.90;;;;;;;11.38;100.00;103009.66;5033754;28;20464;-50
2022/11/12 05:18:07;;;;;;;65.73;57.90;;;;;;;11.38;100.00;103014.19;5034221;28;20474;-47
2022/11/12 05:20:35;;;;;;;65.80;59.03;;;;;;;11.41;100.00;103005.88;5036199;28;20490;-48
2022/11/12 05:23:03;;;;;;;69.47;61.23;;;;;;;11.42;100.00;103004.88;5045278;28;20431;-45
2022/11/12 05:25:36;;;;;;;65.00;58.20;;;;;;;11.42;100.00;103020.91;5053409;28;20459;-47
2022/11/12 05:28:03;;;;;;;65.23;58.07;;;;;;;11.40;100.00;103018.38;5052913;28;20956;-45
2022/11/12 05:30:34;;;;;;;74.90;58.30;;;;;;;11.42;100.00;103012.88;5053739;28;20454;-46
2022/11/12 05:33:01;;;;;;;65.93;59.40;;;;;;;11.44;100.00;103008.25;5053523;28;20948;-48
2022/11/12 05:35:29;;;;;;;67.33;58.33;;;;;;;11.42;100.00;103018.22;5053376;28;20879;-45
2022/11/12 05:37:56;;;;;;;66.17;59.40;;;;;;;11.43;100.00;103019.91;5053215;28;20521;-47
2022/11/12 05:40:24;;;;;;;66.43;58.40;;;;;;;11.42;100.00;103020.91;5053888;28;20462;-48
2022/11/12 05:42:53;;;;;;;64.80;57.80;;;;;;;11.42;100.00;103012.88;5054355;28;20477;-48
2022/11/12 05:45:20;;;;;;;65.30;58.87;;;;;;;11.41;100.00;103016.56;5053044;28;21049;-53
2022/11/12 05:47:48;;;;;;;72.63;60.23;;;;;;;11.40;100.00;103018.38;5052980;28;20489;-50
2022/11/12 05:50:16;;;;;;;66.23;59.83;;;;;;;11.39;100.00;103023.88;5026152;28;20444;-47
2022/11/12 05:52:43;;;;;;;66.50;59.20;;;;;;;11.36;100.00;103022.31;5032969;28;20837;-45
2022/11/12 05:55:11;;;;;;;68.43;57.60;;;;;;;11.37;100.00;103034.72;5032705;28;21036;-51
2022/11/12 05:57:38;;;;;;;63.77;57.50;;;;;;;11.37;100.00;103029.38;5033264;28;20510;-50
2022/11/12 06:00:09;;;;;;;65.03;58.33;;;;;;;11.37;100.00;103029.38;5033310;28;20439;-46
2022/11/12 06:02:37;;;;;;;65.47;56.87;;;;;;;11.41;100.00;103035.25;5032970;28;20937;-49
2022/11/12 06:05:05;;;;;;;67.90;60.67;;;;;;;11.43;100.00;103038.63;5032788;28;20470;-47
2022/11/12 06:07:33;;;;;;;66.10;58.90;;;;;;;11.43;100.00;103044.81;5032693;28;20452;-45
2022/11/12 06:10:00;;;;;;;65.30;58.53;;;;;;;11.43;100.00;103046.63;5033254;28;20440;-45
2022/11/12 06:12:28;;;;;;;66.70;60.00;;;;;;;11.42;100.00;103035.09;5032796;28;20530;-46
2022/11/12 06:14:56;;;;;;;66.13;59.20;;;;;;;11.40;100.00;103042.44;5032292;28;21051;-50
2022/11/12 06:17:25;;;;;;;65.70;58.50;;;;;;;11.41;100.00;103059.31;5032983;28;20460;-52
2022/11/12 06:19:52;;;;;;;63.43;57.13;;;;;;;11.40;100.00;103058.47;5032985;28;20436;-47
2022/11/12 06:22:20;;;;;;;61.87;55.13;;;;;;;11.40;100.00;103053.13;5048766;28;20478;-51
2022/11/12 06:24:47;;;;;;;65.50;58.63;;;;;;;11.39;100.00;103047.91;5032478;28;20461;-51
2022/11/12 06:27:15;;;;;;;62.47;56.07;;;;;;;11.38;100.00;103060.41;5032598;28;21051;-48
2022/11/12 06:29:42;;;;;;;64.93;58.73;;;;;;;11.37;100.00;103080.13;5032589;28;21011;-47
2022/11/12 06:32:10;;;;;;;64.70;58.60;;;;;;;11.39;100.00;103074.63;5032386;28;20432;-47
2022/11/12 06:34:39;;;;;;;62.07;56.03;;;;;;;11.37;100.00;103064.09;5031783;28;20467;-53
2022/11/12 06:37:06;;;;;;;63.57;57.47;;;;;;;11.36;100.00;103065.06;5031679;28;20456;-48
2022/11/12 06:39:34;;;;;;;62.90;57.13;;;;;;;11.33;100.00;103078.72;5032206;28;20498;-50
2022/11/12 06:42:02;;;;;;;59.33;53.67;;;;;;;11.35;100.00;103089.28;5032476;28;20459;-48
2022/11/12 06:44:29;;;;;;;63.70;57.10;;;;;;;11.34;100.00;103085.75;5029127;28;20513;-48
2022/11/12 06:46:57;;;;;;;69.33;57.00;;;;;;;11.35;100.00;103083.94;5032498;28;20522;-45
2022/11/12 06:49:24;;;;;;;63.00;57.00;;;;;;;11.36;100.00;103089.13;5031981;28;20440;-50
2022/11/12 06:51:53;;;;;;;59.90;53.80;;;;;;;11.39;100.00;103085.31;5019807;28;20993;-47
2022/11/12 06:54:21;;;;;;;61.47;55.27;;;;;;;11.37;100.00;103100.66;4986701;28;20461;-46
2022/11/12 06:56:48;;;;;;;58.43;52.37;;;;;;;11.40;100.00;103100.38;5012662;28;20453;-48
2022/11/12 06:59:16;;;;;;;60.70;54.40;;;;;;;11.40;100.00;103095.88;4986821;28;20542;-49
2022/11/12 07:01:44;;;;;;;61.53;55.57;;;;;;;11.39;100.00;103090.66;4986640;28;20461;-50
2022/11/12 07:04:11;;;;;;;62.13;55.43;;;;;;;11.42;100.00;103091.22;4986450;28;20492;-46
2022/11/12 07:06:39;;;;;;;63.00;56.20;;;;;;;11.42;100.00;103107.25;5012265;28;20452;-48
2022/11/12 07:09:08;;;;;;;61.40;55.70;;;;;;;11.43;100.00;103102.75;5012206;28;20437;-46
2022/11/12 07:11:36;;;;;;;62.47;56.83;;;;;;;11.43;100.00;103098.25;4986405;28;20507;-47
2022/11/12 07:14:05;;;;;;;64.20;58.00;;;;;;;11.43;100.00;103100.91;5012336;28;20433;-46
2022/11/12 07:16:33;;;;;;;60.67;54.90;;;;;;;11.46;100.00;103105.13;5011985;28;20441;-51
2022/11/12 07:19:00;;;;;;;61.57;55.43;;;;;;;11.46;100.00;103110.47;5011618;28;20785;-45
2022/11/12 07:21:28;;;;;;;62.83;57.17;;;;;;;11.44;100.00;103107.94;5028754;28;20458;-45
2022/11/12 07:23:56;;;;;;;62.50;56.47;;;;;;;11.46;100.00;103111.31;5045267;28;20435;-49
2022/11/12 07:26:27;;;;;;;59.80;54.33;;;;;;;11.47;100.00;103101.44;5043670;28;20505;-45
2022/11/12 07:28:55;;;;;;;63.13;56.80;;;;;;;11.48;100.00;103120.03;5044857;28;20431;-45
2022/11/12 07:31:24;;;;;;;60.00;54.70;;;;;;;11.46;100.00;103123.81;5049774;28;20467;-47
2022/11/12 07:33:52;;;;;;;60.67;55.00;;;;;;;11.47;100.00;103121.00;5051067;28;20434;-46
2022/11/12 07:36:21;;;;;;;60.43;55.10;;;;;;;11.51;100.00;103114.38;5041472;28;20534;-50
2022/11/12 07:38:52;;;;;;;61.43;55.60;;;;;;;11.48;100.00;103122.69;5051608;28;20501;-48
2022/11/12 07:41:22;;;;;;;58.50;53.17;;;;;;;11.50;100.00;103131.41;5050956;28;20455;-52
2022/11/12 07:43:52;;;;;;;58.20;52.97;;;;;;;11.54;100.00;103134.63;5051665;28;20719;-50
2022/11/12 07:46:22;;;;;;;57.87;52.60;;;;;;;11.57;100.00;103134.34;5051152;28;20431;-46
2022/11/12 07:48:50;;;;;;;60.00;54.17;;;;;;;11.58;100.00;103139.56;5051031;28;20905;-51
2022/11/12 07:51:19;;;;;;;57.47;52.57;;;;;;;11.60;100.00;103140.25;5048329;28;20913;-49
2022/11/12 07:53:48;;;;;;;58.33;53.13;;;;;;;11.60;100.00;103139.41;5038461;28;20462;-48
2022/11/12 07:56:18;;;;;;;60.50;55.33;;;;;;;11.58;100.00;103128.03;5045604;28;20475;-48
2022/11/12 07:58:46;;;;;;;58.07;52.77;;;;;;;11.59;100.00;103133.19;5041826;28;20908;-50
2022/11/12 08:01:25;;;;;;;59.43;54.40;;;;;;;11.62;100.00;103146.28;5056812;28;20565;-48
2022/11/12 08:03:53;;;;;;;63.27;57.20;;;;;;;11.65;100.00;103153.16;5057599;28;20426;-48
2022/11/12 08:06:20;;;;;;;57.57;52.43;;;;;;;11.64;100.00;103141.66;5058022;28;20431;-45
2022/11/12 08:08:51;;;;;;;58.30;53.03;;;;;;;11.68;100.00;103130.66;5057680;28;20484;-50
2022/11/12 08:11:18;;;;;;;58.27;53.03;;;;;;;11.70;100.00;103131.38;5057272;28;20874;-53
2022/11/12 08:13:46;;;;;;;56.30;51.60;;;;;;;11.74;100.00;103146.97;5057690;28;20857;-48
2022/11/12 08:16:14;;;;;;;59.70;54.50;;;;;;;11.75;100.00;103151.34;5040585;28;20475;-50
2022/11/12 08:18:44;;;;;;;58.47;53.33;;;;;;;11.76;100.00;103134.31;5036469;28;20440;-45
2022/11/12 08:21:14;;;;;;;59.77;54.40;;;;;;;11.77;100.00;103127.97;5042288;28;20508;-46
2022/11/12 08:23:42;;;;;;;57.27;52.33;;;;;;;11.78;100.00;103124.31;5047698;28;20423;-45
2022/11/12 08:26:12;;;;;;;59.10;53.70;;;;;;;11.82;100.00;103135.56;5042449;28;20440;-45
2022/11/12 08:28:40;;;;;;;58.50;53.63;;;;;;;11.83;100.00;103148.78;5037752;28;20462;-47
2022/11/12 08:31:10;;;;;;;56.43;51.77;;;;;;;11.86;100.00;103142.28;5035232;28;20456;-45
2022/11/12 08:33:38;;;;;;;58.00;52.87;;;;;;;11.87;100.00;103136.81;5037791;28;20486;-45
2022/11/12 08:36:09;;;;;;;56.30;51.57;;;;;;;11.89;100.00;103131.28;5037096;28;20498;-47
2022/11/12 08:38:37;;;;;;;59.97;54.33;;;;;;;11.93;100.00;103132.69;5037465;28;20526;-47
2022/11/12 08:41:07;;;;;;;59.83;54.83;;;;;;;11.93;100.00;103143.38;5036978;28;21011;-48
2022/11/12 08:43:35;;;;;;;61.03;55.63;;;;;;;11.98;100.00;103149.13;5038068;28;20489;-45
2022/11/12 08:46:04;;;;;;;57.70;52.90;;;;;;;12.03;100.00;103149.56;5031518;28;20444;-46
2022/11/12 08:48:33;;;;;;;56.07;51.17;;;;;;;12.06;100.00;103142.09;5043380;28;20916;-51
2022/11/12 08:51:02;;;;;;;55.83;51.27;;;;;;;12.10;100.00;103146.13;5026868;28;20467;-46
2022/11/12 08:53:31;;;;;;;57.17;52.20;;;;;;;12.13;100.00;103158.34;5046285;28;20442;-49
2022/11/12 08:55:59;;;;;;;56.60;51.93;;;;;;;12.18;100.00;103162.25;5036008;28;20526;-53
2022/11/12 08:58:27;;;;;;;58.57;53.57;;;;;;;12.15;100.00;103165.25;5035914;28;20513;-51
2022/11/12 09:00:56;;;;;;;55.77;50.63;;;;;;;12.21;100.00;103153.94;5035354;28;21205;-51
2022/11/12 09:03:26;;;;;;;56.30;51.50;;;;;;;12.28;100.00;103146.16;5035830;28;20498;-49
2022/11/12 09:05:54;;;;;;;57.27;52.07;;;;;;;12.32;100.00;103146.72;5034345;28;21205;-53
2022/11/12 09:08:23;;;;;;;57.33;52.70;;;;;;;12.29;100.00;103153.22;5034419;28;20502;-47
2022/11/12 09:10:53;;;;;;;57.67;52.97;;;;;;;12.35;100.00;103157.13;5033557;28;20539;-49
2022/11/12 09:13:21;;;;;;;56.23;51.43;;;;;;;12.39;100.00;103161.19;5034352;28;20428;-52
2022/11/12 09:15:49;;;;;;;55.47;50.77;;;;;;;12.40;100.00;103166.38;5034170;28;20475;-50
2022/11/12 09:18:18;;;;;;;53.50;49.30;;;;;;;12.45;100.00;103174.81;5034003;28;20525;-46
2022/11/12 09:20:46;;;;;;;56.97;51.90;;;;;;;12.51;100.00;103174.22;5039592;28;20462;-46
2022/11/12 09:23:16;;;;;;;52.87;48.67;;;;;;;12.55;100.00;103161.34;5045713;28;20431;-50
2022/11/12 09:25:44;;;;;;;55.47;50.80;;;;;;;12.58;100.00;103164.56;5054135;28;20431;-51
2022/11/12 09:28:15;;;;;;;55.20;50.57;;;;;;;12.60;100.00;103173.28;5053831;28;20451;-49
2022/11/12 09:30:45;;;;;;;57.03;52.60;;;;;;;12.61;100.00;103180.34;5052768;28;20431;-47
2022/11/12 09:33:13;;;;;;;57.07;52.10;;;;;;;12.64;100.00;103171.16;5054058;28;20435;-46
2022/11/12 09:35:41;;;;;;;55.87;51.00;;;;;;;12.62;100.00;103165.97;5053717;28;20474;-47
2022/11/12 09:38:09;;;;;;;56.07;51.33;;;;;;;12.66;100.00;103172.69;5053660;28;20467;-47
2022/11/12 09:40:55;;;;;;;56.80;52.17;;;;;;;12.66;100.00;103179.91;5052703;28;20427;-46
2022/11/12 09:43:28;;;;;;;53.60;49.77;;;;;;;12.71;100.00;103183.81;5053628;28;20830;-48
2022/11/12 09:45:59;;;;;;;54.50;49.93;;;;;;;12.73;100.00;103187.16;5073387;22;20484;-45
2022/11/12 09:48:56;;;;;;;56.50;51.50;;;;;;;12.67;100.00;103182.41;5022069;28;20422;-48
2022/11/12 09:51:27;;;;;;;55.03;50.47;;;;;;;12.74;100.00;103199.56;5012825;28;20461;-45
2022/11/12 09:53:57;;;;;;;53.00;48.90;;;;;;;12.76;100.00;103202.06;5013967;28;20455;-48
2022/11/12 09:56:27;;;;;;;54.60;50.10;;;;;;;12.76;100.00;103210.94;5013715;28;20811;-47
2022/11/12 09:58:56;;;;;;;54.93;50.20;;;;;;;12.82;100.00;103208.66;5013636;28;20786;-48
2022/11/12 10:01:37;;;;;;;54.10;50.00;;;;;;;12.84;100.00;103210.22;5012693;28;20508;-48
2022/11/12 10:04:20;;;;;;;55.17;50.97;;;;;;;12.86;100.00;103210.91;5013453;28;20433;-48
2022/11/12 10:06:55;;;;;;;53.87;49.53;;;;;;;12.86;100.00;103210.06;4997449;28;20456;-46
2022/11/12 10:09:28;;;;;;;54.47;49.90;;;;;;;12.85;100.00;103213.72;5013593;28;20842;-46
2022/11/12 10:17:55;;;;;;;54.93;50.50;;;;;;;12.88;100.00;103226.78;5012398;28;20524;-47
2022/11/12 10:20:29;;;;;;;53.63;49.70;;;;;;;12.88;100.00;103216.94;5019214;28;20428;-47
2022/11/12 10:23:15;;;;;;;53.70;49.80;;;;;;;12.89;100.00;103215.94;5044480;28;20514;-49
2022/11/12 10:25:45;;;;;;;54.37;50.07;;;;;;;12.88;100.00;103224.97;5053008;28;20501;-49
2022/11/12 10:28:24;;;;;;;52.37;48.10;;;;;;;12.90;100.00;103220.31;5039149;28;20456;-49
2022/11/12 10:30:56;;;;;;;55.20;50.47;;;;;;;12.92;100.00;103223.69;5028931;28;20489;-46
2022/11/12 10:33:24;;;;;;;54.90;50.80;;;;;;;12.90;100.00;103223.00;5039998;28;20427;-47
2022/11/12 10:35:53;;;;;;;53.07;48.87;;;;;;;12.87;100.00;103225.97;5026909;28;20548;-48
2022/11/12 10:38:26;;;;;;;56.00;51.80;;;;;;;12.86;100.00;103229.66;5029498;28;20502;-48
2022/11/12 10:40:54;;;;;;;54.73;50.53;;;;;;;12.84;100.00;103230.78;5032810;28;20483;-46
2022/11/12 10:43:24;;;;;;;54.60;50.87;;;;;;;12.81;100.00;103236.44;5039404;28;20444;-46
2022/11/12 10:45:52;;;;;;;53.87;49.77;;;;;;;12.76;100.00;103228.84;5041850;28;20522;-48
2022/11/12 10:48:32;;;;;;;52.63;48.87;;;;;;;12.77;100.00;103226.03;5049954;28;20859;-49
2022/11/12 10:51:02;;;;;;;55.63;50.93;;;;;;;12.78;100.00;103226.88;5042456;28;20537;-47
2022/11/12 10:53:33;;;;;;;52.83;48.93;;;;;;;12.82;100.00;103238.13;5048392;28;20439;-46
2022/11/12 10:56:03;;;;;;;55.00;50.50;;;;;;;12.84;100.00;103245.03;5034823;28;20475;-47
2022/11/12 10:58:30;;;;;;;53.73;49.53;;;;;;;12.86;100.00;103235.00;5031651;28;20463;-49
2022/11/12 11:01:00;;;;;;;51.97;48.27;;;;;;;12.89;100.00;103223.97;5031430;28;20478;-47
2022/11/12 11:03:34;;;;;;;53.30;49.30;;;;;;;12.91;100.00;103232.69;5048787;28;20435;-46
2022/11/12 11:06:04;;;;;;;54.40;50.30;;;;;;;12.89;100.00;103223.97;5030082;28;20452;-45
2022/11/12 11:08:41;;;;;;;50.93;47.20;;;;;;;12.91;100.00;103229.16;5042045;28;20939;-45
2022/11/12 11:11:19;;;;;;;52.00;48.20;;;;;;;12.96;100.00;103221.53;5050200;28;20463;-49
2022/11/12 11:13:48;;;;;;;50.30;46.40;;;;;;;13.02;100.00;103218.25;5050886;28;20485;-47
2022/11/12 11:16:24;;;;;;;50.47;47.00;;;;;;;13.05;100.00;103217.97;5050584;28;20479;-47
2022/11/12 11:18:56;;;;;;;50.60;47.07;;;;;;;13.07;100.00;103221.31;5035413;28;20444;-47
2022/11/12 11:21:35;;;;;;;50.90;47.40;;;;;;;13.08;100.00;103223.03;5043054;28;20979;-48
2022/11/12 11:24:25;;;;;;;53.33;49.57;;;;;;;13.06;100.00;103220.47;5045758;28;20502;-49
2022/11/12 11:27:00;;;;;;;54.40;50.60;;;;;;;13.08;100.00;103215.81;5049801;28;20505;-47
2022/11/12 11:29:44;;;;;;;55.17;50.90;;;;;;;13.09;100.00;103220.19;5050205;28;20799;-51
2022/11/12 11:32:29;;;;;;;54.50;50.60;;;;;;;13.12;100.00;103219.03;5048491;28;20468;-46
2022/11/12 11:35:17;;;;;;;53.23;49.27;;;;;;;13.14;100.00;103212.53;5027158;28;20858;-46
2022/11/12 11:37:57;;;;;;;54.30;50.03;;;;;;;13.17;100.00;103214.91;5029865;28;21068;-46